Time;durP1;ratioP1;P1;durP2;ratioP2;P2;SDS_P1;SDS_P2;PMS_P1;PMS_P2;Temp;Humidity;BMP_temperature;BMP_pressure;BME280_temperature;BME280_humidity;BME280_pressure;Samples;Min_cycle;Max_cycle;Signal;HPM_P1;HPM_P2
2022/01/26 00:07:10;;;;;;;8.60;4.70;;;;;;;0.39;94.75;99979.72;5094830;28;20047;-59
2022/01/26 00:09:55;;;;;;;7.88;3.75;;;;;;;0.40;94.22;99971.13;5094394;28;20051;-59
2022/01/26 00:12:41;;;;;;;8.35;3.75;;;;;;;0.36;94.12;99962.53;5093899;28;20051;-60
2022/01/26 00:15:29;;;;;;;9.88;4.68;;;;;;;0.38;94.62;99972.00;5096114;28;20079;-60
2022/01/26 00:18:16;;;;;;;8.27;4.00;;;;;;;0.30;94.57;99966.88;5094575;28;20055;-60
2022/01/26 00:21:12;;;;;;;8.77;4.40;;;;;;;0.22;95.38;99980.69;5094661;28;20055;-60
2022/01/26 00:27:27;;;;;;;11.68;4.80;;;;;;;0.30;94.74;99979.78;5094567;28;20051;-61
2022/01/26 00:39:52;;;;;;;7.75;4.07;;;;;;;0.46;94.22;99978.81;5094288;28;20047;-60
2022/01/26 00:42:40;;;;;;;7.20;3.80;;;;;;;0.51;94.45;99978.75;5093157;28;20059;-60
2022/01/26 00:45:33;;;;;;;11.02;5.40;;;;;;;0.57;93.56;99975.28;5093170;28;20427;-60
2022/01/26 00:48:20;;;;;;;9.63;5.30;;;;;;;0.40;94.20;99983.16;5093998;28;20055;-60
2022/01/26 00:51:08;;;;;;;9.32;4.43;;;;;;;0.32;94.49;99981.50;5093705;28;20050;-60
2022/01/26 00:54:06;;;;;;;8.90;4.60;;;;;;;0.26;94.83;99968.66;5094286;28;20067;-60
2022/01/26 00:56:51;;;;;;;10.95;4.47;;;;;;;0.23;94.96;99972.09;5093905;28;20047;-60
2022/01/26 00:59:37;;;;;;;9.52;4.88;;;;;;;0.23;96.04;99981.53;5093780;28;20399;-61
2022/01/26 01:02:23;;;;;;;10.77;5.55;;;;;;;0.20;95.52;99978.97;5090766;28;20075;-60
2022/01/26 01:05:26;;;;;;;9.40;5.07;;;;;;;0.14;95.44;99972.16;5077904;28;20396;-60
2022/01/26 01:08:13;;;;;;;9.90;4.78;;;;;;;0.27;95.41;99978.09;5073024;28;20075;-60
2022/01/26 01:10:59;;;;;;;10.32;4.47;;;;;;;0.28;94.51;99969.47;5073651;28;20400;-60
2022/01/26 01:13:45;;;;;;;10.18;4.75;;;;;;;0.39;94.32;99984.88;5073335;28;20055;-59
2022/01/26 01:16:31;;;;;;;8.65;4.68;;;;;;;0.59;93.79;99979.56;5073205;28;20051;-59
2022/01/26 01:19:43;;;;;;;8.57;4.72;;;;;;;0.53;92.89;99983.91;5073380;28;20055;-60
2022/01/26 01:31:49;;;;;;;9.10;4.70;;;;;;;0.34;94.18;99979.75;5076255;28;20055;-59
2022/01/26 01:34:37;;;;;;;9.52;4.22;;;;;;;0.43;93.40;99965.94;5092167;28;20593;-60
2022/01/26 01:37:23;;;;;;;8.02;4.75;;;;;;;0.28;93.26;99950.59;5093133;28;20066;-60
2022/01/26 01:40:09;;;;;;;10.18;4.68;;;;;;;0.39;93.64;99968.56;5092894;28;20051;-61
2022/01/26 01:42:55;;;;;;;12.38;5.03;;;;;;;0.51;92.72;99958.13;5084994;28;20051;-61
2022/01/26 01:45:47;;;;;;;11.95;4.85;;;;;;;0.40;93.16;99962.50;5092735;28;20051;-60
2022/01/26 01:48:33;;;;;;;10.63;5.63;;;;;;;0.31;93.42;99969.44;5092219;28;20067;-60
2022/01/26 01:51:26;;;;;;;12.85;5.45;;;;;;;0.26;93.73;99960.91;5092618;28;20047;-60
2022/01/26 01:54:16;;;;;;;;;;;;;;;0.24;94.34;99975.53;5093550;28;20047;-60
2022/01/26 01:57:01;;;;;;;10.63;4.53;;;;;;;0.27;94.26;99972.94;5093198;28;19916;-61
2022/01/26 01:59:47;;;;;;;12.38;5.38;;;;;;;0.26;93.92;99973.81;5092503;28;20403;-60
2022/01/26 02:02:33;;;;;;;9.05;4.93;;;;;;;0.15;94.51;99970.44;5092823;28;20067;-60
2022/01/26 02:05:19;;;;;;;10.98;5.18;;;;;;;0.14;94.78;99967.00;5092938;28;20375;-60
2022/01/26 02:08:05;;;;;;;12.80;5.00;;;;;;;0.17;94.75;99956.66;5092702;28;20364;-61
2022/01/26 02:10:51;;;;;;;10.30;5.05;;;;;;;0.27;94.25;99947.16;5093040;28;20071;-60
2022/01/26 02:17:12;;;;;;;13.02;5.60;;;;;;;0.35;93.93;99972.88;5092644;28;20047;-60
2022/01/26 02:54:22;;;;;;;8.43;4.30;;;;;;;0.21;94.72;99939.47;5092129;28;20047;-60
2022/01/26 02:56:55;;;;;;;8.68;4.38;;;;;;;0.13;94.36;99944.69;5090773;28;20051;-60
2022/01/26 03:00:11;;;;;;;9.90;4.68;;;;;;;0.17;94.30;99948.94;5092324;28;20062;-60
2022/01/26 03:03:09;;;;;;;10.82;4.82;;;;;;;0.13;94.24;99934.38;5091764;28;20058;-61
2022/01/26 03:06:03;;;;;;;10.32;5.10;;;;;;;0.23;93.95;99937.69;5097857;28;20043;-60
2022/01/26 03:08:55;;;;;;;8.65;4.53;;;;;;;0.18;94.00;99930.00;5091741;28;20055;-60
2022/01/26 03:11:44;;;;;;;;;;;;;;;0.17;95.11;99942.91;5092427;28;20055;-60
2022/01/26 03:20:22;;;;;;;10.15;4.72;;;;;;;0.10;94.43;99927.50;5091928;28;20059;-60
2022/01/26 03:29:40;;;;;;;7.22;4.15;;;;;;;0.30;93.47;99928.22;5096813;28;20406;-59
2022/01/26 03:35:19;;;;;;;8.57;4.57;;;;;;;0.19;94.00;99923.13;5095356;28;20051;-60
2022/01/26 03:38:06;;;;;;;12.85;4.60;;;;;;;0.10;93.69;99932.66;5095455;28;20046;-59
2022/01/26 03:44:14;;;;;;;7.53;4.22;;;;;;;0.20;93.69;99923.13;5044653;28;20056;-60
2022/01/26 03:47:01;;;;;;;11.27;4.43;;;;;;;0.01;94.36;99918.97;5095379;28;20051;-59
2022/01/26 03:49:46;;;;;;;8.48;3.72;;;;;;;0.24;93.35;99929.13;5095348;28;20055;-59
2022/01/26 03:52:32;;;;;;;11.10;4.47;;;;;;;0.11;93.92;99920.63;5094878;28;20055;-62
2022/01/26 03:55:18;;;;;;;11.02;4.50;;;;;;;0.18;93.25;99927.44;5095115;28;20501;-59
2022/01/26 03:58:04;;;;;;;8.77;4.60;;;;;;;0.16;93.85;99926.59;5095383;28;20055;-59
2022/01/26 04:00:50;;;;;;;8.45;4.40;;;;;;;0.27;93.87;99920.50;5094873;28;20047;-59
2022/01/26 04:03:36;;;;;;;9.07;4.10;;;;;;;0.24;93.59;99923.97;5094831;28;20059;-59
2022/01/26 04:06:21;;;;;;;11.20;4.60;;;;;;;0.21;93.48;99917.09;5094379;28;20403;-59
2022/01/26 04:09:10;;;;;;;8.55;4.35;;;;;;;0.23;94.35;99924.81;5094904;28;20062;-59
2022/01/26 04:11:56;;;;;;;8.63;4.60;;;;;;;0.17;94.05;99912.84;5094808;28;20107;-59
2022/01/26 04:14:46;;;;;;;9.85;4.40;;;;;;;0.28;93.55;99923.06;5094494;28;20082;-59
2022/01/26 04:17:31;;;;;;;9.73;4.65;;;;;;;0.05;94.48;99920.66;5093703;28;20063;-59
2022/01/26 04:20:18;;;;;;;9.05;4.75;;;;;;;0.03;94.96;99906.94;5094689;28;20426;-60
2022/01/26 04:23:23;;;;;;;9.05;4.45;;;;;;;0.24;94.58;99918.81;5094809;28;20055;-59
2022/01/26 04:26:10;;;;;;;9.25;4.63;;;;;;;0.14;95.19;99923.19;5094519;28;20059;-60
2022/01/26 04:29:01;;;;;;;12.38;5.38;;;;;;;0.07;95.58;99919.78;5094687;28;20391;-60
2022/01/26 04:31:47;;;;;;;13.05;5.70;;;;;;;0.04;95.85;99901.75;5093610;28;20059;-60
2022/01/26 04:34:34;;;;;;;13.23;5.68;;;;;;;0.01;96.77;99927.56;5094216;28;20070;-60
2022/01/26 04:40:09;;;;;;;13.07;6.20;;;;;;;0.01;96.54;99908.66;5094260;28;20055;-60
2022/01/26 04:43:02;;;;;;;12.10;5.30;;;;;;;-0.07;97.73;99916.44;5093756;28;20043;-60
2022/01/26 04:45:47;;;;;;;12.10;5.03;;;;;;;0.26;96.06;99927.41;5094033;28;20051;-59
2022/01/26 04:48:33;;;;;;;22.85;5.95;;;;;;;0.30;95.95;99925.63;5094128;28;20051;-60
2022/01/26 04:51:18;;;;;;;11.98;5.38;;;;;;;0.06;96.57;99915.50;5093891;28;20047;-59
2022/01/26 04:54:04;;;;;;;13.48;5.28;;;;;;;0.22;95.76;99929.13;5093965;28;20067;-61
2022/01/26 04:56:50;;;;;;;13.15;5.40;;;;;;;0.27;96.05;99930.81;5093733;28;20051;-59
2022/01/26 04:59:36;;;;;;;12.57;5.60;;;;;;;0.02;95.86;99907.81;5099891;28;20051;-60
2022/01/26 05:02:21;;;;;;;13.55;5.10;;;;;;;-0.03;97.52;99924.13;5093533;28;20047;-59
2022/01/26 05:05:07;;;;;;;12.13;5.32;;;;;;;0.10;96.70;99913.72;5093839;28;20394;-60
2022/01/26 05:07:53;;;;;;;14.40;6.40;;;;;;;-0.02;97.23;99912.13;5093521;28;20059;-59
2022/01/26 05:10:42;;;;;;;13.15;5.82;;;;;;;0.08;97.05;99924.06;5093768;28;20455;-59
2022/01/26 05:13:28;;;;;;;20.33;6.38;;;;;;;-0.08;97.80;99931.03;5093733;28;20051;-60
2022/01/26 05:16:13;;;;;;;13.10;6.25;;;;;;;0.09;97.23;99920.63;5093058;28;20078;-60
2022/01/26 05:19:00;;;;;;;15.63;6.50;;;;;;;0.15;96.86;99927.44;5099774;28;20047;-61
2022/01/26 05:21:45;;;;;;;15.20;6.78;;;;;;;-0.03;97.94;99925.84;5084559;28;20052;-60
2022/01/26 05:24:31;;;;;;;13.43;5.80;;;;;;;0.07;97.77;99927.50;5072391;28;20051;-60
2022/01/26 05:27:17;;;;;;;19.88;5.57;;;;;;;0.15;97.02;99926.63;5078210;28;20067;-60
2022/01/26 05:30:05;;;;;;;14.02;6.43;;;;;;;0.08;97.41;99926.63;5081190;28;20051;-59
2022/01/26 05:32:51;;;;;;;17.52;7.07;;;;;;;0.00;97.54;99925.84;5078530;28;20055;-60
2022/01/26 05:35:37;;;;;;;13.75;6.10;;;;;;;0.07;97.88;99918.91;5081031;28;20047;-60
2022/01/26 05:38:22;;;;;;;16.92;6.78;;;;;;;0.04;97.98;99913.78;5080432;28;20059;-60
2022/01/26 05:41:09;;;;;;;16.02;7.15;;;;;;;-0.13;98.13;99900.16;5071778;28;20047;-60
2022/01/26 05:43:55;;;;;;;16.20;6.18;;;;;;;-0.02;98.19;99912.13;5074360;28;20059;-60
2022/01/26 05:46:45;;;;;;;18.52;7.45;;;;;;;-0.21;99.55;99924.25;5072935;28;20063;-60
2022/01/26 05:49:31;;;;;;;15.25;6.93;;;;;;;-0.17;99.43;99910.50;5078300;28;20506;-60
2022/01/26 05:52:17;;;;;;;19.17;7.25;;;;;;;-0.05;98.86;99931.00;5073984;28;20051;-59
2022/01/26 05:55:03;;;;;;;16.77;7.38;;;;;;;-0.09;99.07;99923.31;5071302;28;20075;-61
2022/01/26 05:57:49;;;;;;;13.68;6.00;;;;;;;0.06;98.58;99919.78;5071801;28;20115;-59
2022/01/26 06:00:34;;;;;;;16.30;7.25;;;;;;;0.06;98.70;99938.69;5071720;28;20051;-60
2022/01/26 06:03:20;;;;;;;20.67;8.15;;;;;;;-0.25;99.88;99923.41;5071769;28;20395;-59
2022/01/26 06:06:06;;;;;;;24.15;8.25;;;;;;;-0.14;99.56;99921.63;5071793;28;20473;-60
2022/01/26 06:08:52;;;;;;;18.55;7.60;;;;;;;0.27;100.00;99928.22;5072287;28;20044;-59
2022/01/26 06:11:38;;;;;;;18.63;8.50;;;;;;;0.23;100.00;99942.84;5071261;28;20051;-58
2022/01/26 06:14:23;;;;;;;20.30;6.78;;;;;;;0.29;100.00;99948.00;5072179;28;20063;-59
2022/01/26 06:17:12;;;;;;;19.08;8.02;;;;;;;0.06;100.00;99936.13;5071780;28;20055;-59
2022/01/26 06:20:01;;;;;;;14.88;6.43;;;;;;;0.55;100.00;99948.66;5071318;28;20392;-61
2022/01/26 06:22:47;;;;;;;22.15;7.88;;;;;;;0.39;99.92;99935.91;5084769;28;20075;-59
2022/01/26 06:25:33;;;;;;;19.60;8.20;;;;;;;0.08;100.00;99939.53;5071151;28;20055;-59
2022/01/26 06:28:19;;;;;;;18.50;7.97;;;;;;;0.10;100.00;99945.53;5073769;28;20064;-60
2022/01/26 06:31:14;;;;;;;20.00;8.73;;;;;;;-0.02;100.00;99935.31;5072496;28;20608;-59
2022/01/26 06:34:03;;;;;;;17.67;7.07;;;;;;;0.05;100.00;99934.38;5072141;28;20498;-59
2022/01/26 06:36:48;;;;;;;18.02;8.18;;;;;;;-0.08;100.00;99931.03;5072045;28;20071;-59
2022/01/26 06:39:34;;;;;;;26.50;9.10;;;;;;;-0.05;100.00;99936.16;5071679;28;20063;-58
2022/01/26 06:42:25;;;;;;;20.30;8.68;;;;;;;-0.14;100.00;99929.38;5074385;28;20055;-59
2022/01/26 06:45:17;;;;;;;17.80;7.70;;;;;;;-0.09;100.00;99949.09;5083771;28;20051;-59
2022/01/26 06:50:58;;;;;;;20.35;7.93;;;;;;;-0.15;100.00;99944.84;5081712;28;19916;-59
2022/01/26 06:53:44;;;;;;;17.35;7.72;;;;;;;0.01;100.00;99950.75;5097793;28;20055;-59
2022/01/26 06:56:30;;;;;;;21.73;8.32;;;;;;;-0.16;100.00;99925.06;5092035;28;20051;-66
2022/01/26 06:59:15;;;;;;;21.75;9.05;;;;;;;-0.19;100.00;99935.38;5118499;28;20047;-65
2022/01/26 07:02:20;;;;;;;21.98;8.48;;;;;;;-0.05;100.00;99940.47;5111250;28;20046;-63
2022/01/26 07:05:10;;;;;;;27.88;10.43;;;;;;;2.49;100.00;99942.00;5113740;28;20058;-63
2022/01/26 07:07:56;;;;;;;20.95;9.98;;;;;;;2.39;96.19;99938.72;5116430;28;20505;-68
2022/01/26 07:10:44;;;;;;;20.13;9.20;;;;;;;1.39;100.00;99928.91;5103374;28;20058;-64
2022/01/26 07:13:30;;;;;;;20.17;8.90;;;;;;;0.61;100.00;99940.84;5083343;28;20072;-67
2022/01/26 07:19:50;;;;;;;21.70;7.95;;;;;;;0.23;100.00;99922.22;5079945;28;20411;-65
2022/01/26 07:22:33;;;;;;;17.85;7.70;;;;;;;0.38;100.00;99938.47;5074307;28;20071;-66
2022/01/26 07:25:19;;;;;;;21.27;8.30;;;;;;;0.29;100.00;99952.28;5075366;28;20511;-67
2022/01/26 07:28:05;;;;;;;16.25;8.20;;;;;;;0.05;100.00;99936.97;5081654;28;20403;-63
2022/01/26 07:30:51;;;;;;;19.90;8.40;;;;;;;0.13;100.00;99925.75;5077575;28;20051;-66
2022/01/26 07:33:38;;;;;;;19.80;8.63;;;;;;;0.06;100.00;99943.84;5085840;28;20059;-63
2022/01/26 07:36:25;;;;;;;17.50;8.18;;;;;;;0.21;100.00;99935.13;5090329;28;20071;-66
2022/01/26 07:39:15;;;;;;;15.65;6.97;;;;;;;0.32;100.00;99937.66;5076522;28;20396;-65
2022/01/26 07:42:01;;;;;;;18.55;8.48;;;;;;;0.16;100.00;99949.81;5074306;28;20047;-60
2022/01/26 07:44:48;;;;;;;18.30;7.18;;;;;;;0.15;100.00;99927.44;5074787;28;20047;-65
2022/01/26 07:47:36;;;;;;;20.13;7.88;;;;;;;0.40;100.00;99923.84;5074571;28;20411;-67
2022/01/26 07:50:22;;;;;;;19.83;7.60;;;;;;;0.29;100.00;99936.81;5079058;28;20522;-62
2022/01/26 07:53:14;;;;;;;16.45;7.30;;;;;;;0.27;100.00;99941.13;5085004;28;20051;-63
2022/01/26 07:56:00;;;;;;;21.70;8.07;;;;;;;0.35;100.00;99944.50;5082106;28;20055;-64
2022/01/26 07:58:48;;;;;;;15.45;7.13;;;;;;;0.28;100.00;99948.00;5076951;28;20075;-64
2022/01/26 08:01:33;;;;;;;17.10;6.97;;;;;;;0.12;100.00;99953.25;5084955;28;20059;-64
2022/01/26 08:04:19;;;;;;;12.80;6.18;;;;;;;0.31;100.00;99943.66;5075764;28;20495;-65
2022/01/26 08:07:05;;;;;;;17.42;6.82;;;;;;;0.15;100.00;99935.19;5075571;28;20546;-66
2022/01/26 08:09:51;;;;;;;17.73;7.50;;;;;;;0.41;100.00;99954.75;5073033;28;20051;-64
2022/01/26 08:12:38;;;;;;;16.40;6.10;;;;;;;0.39;100.00;99958.25;5076540;28;20071;-65
2022/01/26 08:15:27;;;;;;;15.63;6.65;;;;;;;0.35;100.00;99962.56;5075271;28;20051;-65
2022/01/26 08:18:13;;;;;;;18.75;6.18;;;;;;;1.11;100.00;99942.94;5078138;28;20051;-67
2022/01/26 08:21:04;;;;;;;17.77;6.47;;;;;;;0.83;100.00;99951.84;5073381;28;20044;-65
2022/01/26 08:23:50;;;;;;;17.27;7.13;;;;;;;1.04;100.00;99946.50;5072500;28;20051;-56
2022/01/26 08:26:42;;;;;;;15.52;7.13;;;;;;;0.47;100.00;99948.72;5073390;28;20055;-54
2022/01/26 08:29:32;;;;;;;20.63;8.15;;;;;;;0.38;100.00;99949.63;5078760;28;20506;-56
2022/01/26 08:32:18;;;;;;;13.10;6.18;;;;;;;0.93;100.00;99942.28;5073653;28;20051;-47
2022/01/26 08:35:04;;;;;;;18.08;7.88;;;;;;;1.21;100.00;99939.41;5074203;28;20047;-52
2022/01/26 08:37:50;;;;;;;18.45;8.05;;;;;;;0.27;100.00;99930.81;5073985;28;20411;-54
2022/01/26 08:40:36;;;;;;;15.02;8.25;;;;;;;0.20;100.00;99943.75;5074186;28;20051;-55
2022/01/26 08:43:22;;;;;;;18.67;7.80;;;;;;;0.27;100.00;99936.84;5073619;28;20427;-55
2022/01/26 08:46:08;;;;;;;23.30;8.45;;;;;;;0.32;100.00;99944.53;5073829;28;20051;-53
2022/01/26 08:48:54;;;;;;;20.83;7.68;;;;;;;0.34;99.89;99947.97;5078912;28;20510;-55
2022/01/26 08:51:39;;;;;;;18.15;6.80;;;;;;;1.54;100.00;99933.00;5084144;28;20043;-56
2022/01/26 08:54:25;;;;;;;19.20;7.97;;;;;;;0.86;98.62;99926.00;5093827;28;20059;-54
2022/01/26 08:57:11;;;;;;;18.98;7.68;;;;;;;0.44;100.00;99941.00;5073447;28;20079;-53
2022/01/26 08:59:58;;;;;;;19.10;8.70;;;;;;;0.40;99.52;99947.91;5072982;28;20044;-55
2022/01/26 09:02:44;;;;;;;18.70;8.05;;;;;;;0.24;99.88;99931.69;5073315;28;20399;-54
2022/01/26 09:05:30;;;;;;;17.40;6.68;;;;;;;0.45;99.52;99950.44;5073031;28;20107;-53
2022/01/26 09:08:17;;;;;;;20.35;8.43;;;;;;;0.31;99.36;99935.09;5073184;28;20059;-53
2022/01/26 09:11:03;;;;;;;22.08;7.63;;;;;;;0.33;99.88;99936.78;5072993;28;20169;-52
2022/01/26 09:13:56;;;;;;;21.20;7.82;;;;;;;0.58;98.62;99944.34;5072551;28;20518;-54
2022/01/26 09:16:42;;;;;;;19.05;7.25;;;;;;;0.58;98.55;99953.78;5073272;28;20106;-53
2022/01/26 09:19:30;;;;;;;22.30;8.18;;;;;;;0.51;98.42;99941.81;5078047;28;20055;-52
2022/01/26 09:22:17;;;;;;;12.75;6.40;;;;;;;0.60;97.46;99945.16;5073212;28;20063;-53
2022/01/26 09:25:03;;;;;;;18.15;7.63;;;;;;;0.52;98.94;99951.25;5072674;28;20404;-52
2022/01/26 09:27:49;;;;;;;17.90;7.78;;;;;;;0.42;98.82;99945.31;5072880;28;20047;-52
2022/01/26 09:30:35;;;;;;;19.42;7.32;;;;;;;0.53;98.39;99946.09;5072601;28;20051;-52
2022/01/26 09:33:21;;;;;;;21.60;7.75;;;;;;;0.71;97.28;99946.78;5086137;28;20071;-52
2022/01/26 09:36:07;;;;;;;20.65;7.35;;;;;;;0.65;97.23;99946.84;5072693;28;20502;-51
2022/01/26 09:38:53;;;;;;;17.58;7.50;;;;;;;0.63;97.18;99922.78;5057222;28;20872;-49
2022/01/26 09:41:39;;;;;;;20.85;7.72;;;;;;;0.79;97.21;99929.53;5063312;28;20051;-53
2022/01/26 09:44:24;;;;;;;21.65;10.10;;;;;;;0.77;95.94;99930.41;5071583;28;20048;-56
2022/01/26 09:47:11;;;;;;;18.40;7.65;;;;;;;0.76;96.72;99936.44;5072443;28;20044;-53
2022/01/26 09:49:57;;;;;;;18.83;7.88;;;;;;;0.82;95.96;99915.72;5072595;28;20063;-54
2022/01/26 09:52:47;;;;;;;24.95;9.27;;;;;;;0.71;96.72;99942.50;5091363;28;20070;-52
2022/01/26 09:55:33;;;;;;;20.67;7.90;;;;;;;0.60;96.76;99932.25;5092687;28;20058;-54
2022/01/26 09:58:20;;;;;;;27.48;9.93;;;;;;;0.58;97.30;99933.16;5077678;28;20051;-52
2022/01/26 10:01:06;;;;;;;22.50;8.23;;;;;;;0.76;97.30;99939.88;5087929;28;20048;-54
2022/01/26 10:03:52;;;;;;;20.17;8.80;;;;;;;0.81;97.86;99938.09;5076108;28;20403;-50
2022/01/26 10:06:40;;;;;;;17.00;7.95;;;;;;;0.71;96.43;99916.69;5081319;28;20051;-50
2022/01/26 10:18:17;;;;;;;16.48;7.78;;;;;;;1.22;95.22;99924.78;5071722;28;20067;-49
2022/01/26 10:21:04;;;;;;;15.63;7.50;;;;;;;0.92;94.97;99924.22;5081462;28;20043;-50
2022/01/26 10:23:52;;;;;;;21.35;9.27;;;;;;;0.70;95.94;99911.56;5105857;28;20411;-54
2022/01/26 10:26:37;;;;;;;18.05;7.03;;;;;;;0.91;94.86;99923.41;5082251;28;20515;-56
2022/01/26 10:29:24;;;;;;;19.38;7.40;;;;;;;0.76;94.88;99926.97;5072088;28;20063;-53
2022/01/26 10:32:13;;;;;;;13.23;6.03;;;;;;;0.74;95.22;99920.97;5076190;28;20047;-49
2022/01/26 10:35:01;;;;;;;15.32;6.43;;;;;;;0.88;94.19;99917.41;5075545;28;20474;-52
2022/01/26 10:37:53;;;;;;;15.27;7.13;;;;;;;0.83;93.58;99909.72;5081318;28;20067;-55
2022/01/26 10:40:39;;;;;;;16.00;6.78;;;;;;;0.68;93.33;99916.72;5086752;28;20051;-53
2022/01/26 10:43:26;;;;;;;14.10;5.75;;;;;;;0.85;92.88;99908.81;5097431;28;20052;-54
2022/01/26 10:46:11;;;;;;;13.80;6.07;;;;;;;0.71;93.29;99913.25;5087695;28;20051;-51
2022/01/26 10:52:03;;;;;;;14.43;6.22;;;;;;;1.06;91.72;99896.53;5098876;28;20047;-48
2022/01/26 10:54:50;;;;;;;15.52;7.07;;;;;;;1.00;91.54;99882.88;5108425;28;20411;-48
2022/01/26 10:57:36;;;;;;;18.70;7.50;;;;;;;1.25;90.87;99890.31;5100963;28;20046;-52
2022/01/26 11:00:22;;;;;;;17.27;6.65;;;;;;;1.11;90.26;99881.00;5096034;28;20063;-51
2022/01/26 11:03:08;;;;;;;15.13;6.30;;;;;;;1.19;89.95;99888.69;5082592;28;20058;-52
2022/01/26 11:05:55;;;;;;;16.88;6.85;;;;;;;1.04;89.81;99872.50;5099045;28;20080;-52
2022/01/26 11:08:40;;;;;;;15.48;5.78;;;;;;;1.27;90.88;99876.53;5086625;28;20051;-52
2022/01/26 11:11:26;;;;;;;14.85;6.07;;;;;;;1.15;89.55;99874.06;5073004;28;20048;-48
2022/01/26 11:14:21;;;;;;;17.20;6.93;;;;;;;1.48;88.90;99877.97;5071802;28;20621;-50
2022/01/26 11:17:08;;;;;;;28.42;13.85;;;;;;;2.09;91.53;99859.00;5081523;28;20046;-60
2022/01/26 11:19:57;;;;;;;30.77;13.48;;;;;;;3.63;87.39;99869.94;5110863;28;20458;-59
2022/01/26 11:22:55;;;;;;;25.48;12.52;;;;;;;3.93;86.19;99864.09;5092248;28;20067;-59
2022/01/26 11:25:44;;;;;;;22.42;8.80;;;;;;;4.14;95.01;99847.16;5071277;28;20427;-61
2022/01/26 11:28:30;;;;;;;18.45;8.25;;;;;;;3.68;87.24;99865.50;5070346;28;20162;-52
2022/01/26 11:31:18;;;;;;;13.07;5.80;;;;;;;2.79;84.98;99849.16;5076666;28;20067;-54
2022/01/26 11:34:05;;;;;;;15.43;6.75;;;;;;;2.12;84.66;99846.91;5071213;28;20499;-52
2022/01/26 11:36:50;;;;;;;13.98;6.50;;;;;;;2.06;84.67;99860.78;5070238;28;20052;-56
2022/01/26 11:45:38;;;;;;;13.50;6.15;;;;;;;3.08;81.88;99857.28;5070700;28;20380;-54
2022/01/26 11:48:25;;;;;;;20.75;6.78;;;;;;;2.88;81.20;99847.28;5091384;28;20071;-55
2022/01/26 11:51:10;;;;;;;15.15;6.95;;;;;;;2.69;80.68;99839.91;5073760;28;20074;-50
2022/01/26 11:53:56;;;;;;;13.70;5.80;;;;;;;3.40;79.10;99842.78;5074255;28;20400;-51
2022/01/26 11:57:03;;;;;;;13.57;6.22;;;;;;;4.26;74.88;99838.22;5074346;28;20063;-58
2022/01/26 12:00:03;;;;;;;16.00;6.50;;;;;;;4.28;75.03;99833.84;5096636;28;20050;-58
2022/01/26 12:05:44;;;;;;;15.13;5.82;;;;;;;4.53;71.40;99814.19;5074368;28;20060;-58
2022/01/26 12:08:38;;;;;;;12.65;6.15;;;;;;;3.99;75.25;99848.38;5078507;28;20399;-58
2022/01/26 12:11:24;;;;;;;16.50;5.90;;;;;;;3.76;74.85;99852.38;5073335;28;20052;-59
2022/01/26 12:14:19;;;;;;;14.73;6.00;;;;;;;3.84;76.30;99847.00;5073560;28;20118;-59
2022/01/26 12:17:11;;;;;;;17.13;6.72;;;;;;;3.36;78.06;99823.03;5078936;28;20063;-62
2022/01/26 12:32:00;;;;;;;13.20;5.20;;;;;;;3.37;82.36;99834.22;5074196;28;20055;-62
2022/01/26 12:32:42;;;;;;;15.02;5.57;;;;;;;3.03;80.28;99835.78;5080412;28;20047;-61
2022/01/26 12:44:16;;;;;;;15.15;6.20;;;;;;;2.73;80.80;99814.78;5078718;28;20115;-58
2022/01/26 12:47:02;;;;;;;11.93;5.88;;;;;;;2.71;80.91;99822.56;5073968;28;20403;-57
2022/01/26 12:49:48;;;;;;;11.60;5.45;;;;;;;2.29;82.79;99813.00;5073464;28;20047;-56
2022/01/26 12:52:35;;;;;;;11.68;5.40;;;;;;;2.29;81.95;99813.84;5091916;28;20055;-56
2022/01/26 12:55:23;;;;;;;13.40;5.75;;;;;;;2.45;81.78;99817.03;5098170;28;20051;-53
2022/01/26 12:58:09;;;;;;;13.50;5.75;;;;;;;2.62;80.96;99813.28;5093694;28;20047;-53
2022/01/26 13:01:06;;;;;;;12.30;6.10;;;;;;;2.12;82.04;99805.53;5093252;28;20399;-49
2022/01/26 13:03:59;;;;;;;16.40;6.15;;;;;;;1.60;84.07;99799.44;5092594;28;20047;-51
2022/01/26 13:06:53;;;;;;;11.98;5.63;;;;;;;2.05;83.10;99805.66;5081852;28;20407;-53
2022/01/26 13:09:41;;;;;;;11.52;5.18;;;;;;;1.58;84.50;99796.03;5077405;28;20055;-58
2022/01/26 13:12:32;;;;;;;14.85;5.97;;;;;;;1.53;84.71;99802.16;5072464;28;20048;-57
2022/01/26 13:15:22;;;;;;;12.70;5.13;;;;;;;1.69;84.70;99813.97;5073229;28;20059;-55
2022/01/26 13:18:44;;;;;;;14.68;5.60;;;;;;;1.60;84.84;99801.16;5072569;28;20403;-51
2022/01/26 13:24:52;;;;;;;13.68;5.45;;;;;;;1.64;84.44;99804.56;5072313;28;20047;-58
2022/01/26 14:00:41;;;;;;;11.65;5.40;;;;;;;0.75;88.95;99821.22;5088303;28;20479;-51
2022/01/26 14:03:30;;;;;;;10.48;4.97;;;;;;;0.78;88.91;99826.34;5072095;28;20051;-49
2022/01/26 14:06:16;;;;;;;12.10;5.47;;;;;;;0.85;88.69;99827.94;5077689;28;20066;-54
2022/01/26 14:09:01;;;;;;;12.65;5.60;;;;;;;0.78;88.44;99826.34;5077036;28;20044;-53
2022/01/26 14:11:49;;;;;;;10.48;4.88;;;;;;;0.80;88.84;99837.50;5071577;28;20055;-53
2022/01/26 14:14:41;;;;;;;13.68;5.47;;;;;;;0.49;89.14;99799.97;5070632;28;20071;-49
2022/01/26 14:17:58;;;;;;;12.70;5.18;;;;;;;0.65;89.74;99833.34;5071664;28;20047;-51
2022/01/26 14:20:53;;;;;;;12.77;5.38;;;;;;;0.54;90.10;99826.56;5071714;28;20060;-51
2022/01/26 14:26:49;;;;;;;16.77;5.28;;;;;;;0.47;89.83;99820.63;5071747;28;20047;-50
2022/01/26 14:54:18;;;;;;;11.70;5.38;;;;;;;0.38;90.54;99802.66;5089936;28;20418;-57
